Time;durP1;ratioP1;P1;durP2;ratioP2;P2;SDS_P1;SDS_P2;PMS_P1;PMS_P2;Temp;Humidity;BMP_temperature;BMP_pressure;BME280_temperature;BME280_humidity;BME280_pressure;Samples;Min_cycle;Max_cycle;Signal;HPM_P1;HPM_P2
2022/07/22 00:00:37;;;;;;;2.05;0.60;;;;;;;21.38;66.43;101771.25;7385253;19;20025;-64
2022/07/22 00:03:04;;;;;;;4.90;0.73;;;;;;;21.37;66.30;101761.56;7384821;19;20025;-65
2022/07/22 00:05:31;;;;;;;6.90;0.60;;;;;;;21.38;66.38;101765.91;7379787;19;20019;-64
2022/07/22 00:07:59;;;;;;;6.35;0.73;;;;;;;21.39;65.73;101764.84;7384590;19;20453;-65
2022/07/22 00:10:30;;;;;;;2.00;0.60;;;;;;;21.37;64.20;101758.06;7386666;19;20015;-64
2022/07/22 00:13:00;;;;;;;5.15;0.70;;;;;;;21.36;63.89;101765.25;7385048;19;20030;-61
2022/07/22 00:15:28;;;;;;;3.55;0.52;;;;;;;21.36;63.63;101761.75;7387189;19;20022;-62
2022/07/22 00:17:55;;;;;;;3.10;0.40;;;;;;;21.32;63.69;101751.47;7386038;19;20464;-63
2022/07/22 00:20:23;;;;;;;4.38;0.60;;;;;;;21.29;63.86;101751.84;7382494;19;20568;-61
2022/07/22 00:22:50;;;;;;;6.82;0.40;;;;;;;21.28;64.29;101744.81;7386059;19;20512;-61
2022/07/22 00:25:22;;;;;;;5.47;0.45;;;;;;;21.28;64.70;101747.50;7385510;19;20015;-61
2022/07/22 00:27:52;;;;;;;2.97;0.40;;;;;;;21.25;64.36;101734.53;7386250;19;20039;-61
2022/07/22 00:30:26;;;;;;;2.75;0.38;;;;;;;21.24;64.81;101732.03;7386020;19;20015;-61
2022/07/22 00:32:53;;;;;;;7.75;0.40;;;;;;;21.23;65.28;101733.09;7384194;19;20011;-61
2022/07/22 00:35:21;;;;;;;2.47;0.40;;;;;;;21.21;65.40;101719.06;7381189;19;20014;-62
2022/07/22 00:37:48;;;;;;;3.80;0.40;;;;;;;21.16;65.42;101711.63;7386265;19;20021;-62
2022/07/22 00:40:15;;;;;;;2.92;0.30;;;;;;;21.13;65.89;101724.56;7385941;19;20010;-64
2022/07/22 00:42:42;;;;;;;2.45;0.40;;;;;;;21.09;66.02;101728.66;7384594;19;20036;-64
2022/07/22 00:45:09;;;;;;;3.67;0.32;;;;;;;21.06;66.18;101721.03;7384960;19;20375;-64
2022/07/22 00:47:36;;;;;;;5.63;0.43;;;;;;;21.05;66.14;101722.06;7385014;19;20077;-64
2022/07/22 00:50:04;;;;;;;4.00;0.35;;;;;;;21.01;66.35;101729.66;7382328;19;20026;-64
2022/07/22 00:52:33;;;;;;;6.55;0.47;;;;;;;21.01;66.67;101724.31;7384878;19;20015;-66
2022/07/22 00:55:01;;;;;;;4.20;0.47;;;;;;;21.00;66.68;101730.69;7385244;19;20086;-65
2022/07/22 00:57:28;;;;;;;6.38;0.30;;;;;;;21.01;67.28;101734.19;7385805;19;20037;-66
2022/07/22 00:59:55;;;;;;;4.30;0.45;;;;;;;21.00;67.56;101724.50;7381885;19;20019;-64
2022/07/22 01:02:22;;;;;;;6.03;0.30;;;;;;;20.99;67.92;101722.84;7383535;19;20470;-65
2022/07/22 01:04:49;;;;;;;4.57;0.40;;;;;;;20.99;67.83;101725.53;7383572;19;20485;-61
2022/07/22 01:07:16;;;;;;;4.32;0.30;;;;;;;20.98;67.83;101724.69;7385081;19;20125;-61
2022/07/22 01:09:44;;;;;;;4.18;0.57;;;;;;;20.96;67.81;101717.91;7381637;19;20019;-62
2022/07/22 01:12:12;;;;;;;6.55;0.35;;;;;;;20.93;68.16;101722.63;7384339;19;20021;-63
2022/07/22 01:14:39;;;;;;;5.63;0.30;;;;;;;20.95;68.59;101713.56;7383375;19;20487;-63
2022/07/22 01:17:06;;;;;;;4.32;0.40;;;;;;;20.97;68.21;101719.56;7385845;19;20082;-63
2022/07/22 01:19:36;;;;;;;5.32;0.50;;;;;;;20.96;68.19;101717.91;7378684;19;20014;-61
2022/07/22 01:22:06;;;;;;;7.82;1.10;;;;;;;20.91;68.44;101708.63;7386027;19;20023;-64
2022/07/22 01:24:34;;;;;;;3.38;0.30;;;;;;;20.87;68.85;101717.25;7385278;19;20082;-64
2022/07/22 01:27:01;;;;;;;7.65;0.80;;;;;;;20.85;69.30;101713.94;7385127;19;20279;-64
2022/07/22 01:29:27;;;;;;;6.65;0.40;;;;;;;20.83;69.40;101705.28;7384641;19;20349;-64
2022/07/22 01:31:54;;;;;;;2.90;0.40;;;;;;;20.83;69.09;101714.13;7384099;19;20023;-63
2022/07/22 01:34:21;;;;;;;3.65;0.40;;;;;;;20.81;69.07;101705.50;7380992;19;20037;-64
2022/07/22 01:36:48;;;;;;;6.13;0.40;;;;;;;20.81;68.67;101704.66;7382785;19;20029;-61
2022/07/22 01:39:16;;;;;;;3.55;0.30;;;;;;;20.79;68.79;101704.03;7380508;19;20016;-63
2022/07/22 01:41:43;;;;;;;2.80;0.30;;;;;;;20.79;68.72;101701.34;7383687;19;20018;-62
2022/07/22 01:44:10;;;;;;;4.03;0.32;;;;;;;20.78;68.57;101713.06;7381780;19;20037;-62
2022/07/22 01:46:37;;;;;;;3.85;0.40;;;;;;;20.78;69.31;101707.72;7382742;19;20100;-62
2022/07/22 01:49:04;;;;;;;2.85;0.50;;;;;;;20.76;69.25;101704.44;7376689;19;20032;-63
2022/07/22 01:51:31;;;;;;;4.53;0.50;;;;;;;20.76;69.29;101702.59;7382738;19;20033;-63
2022/07/22 01:53:58;;;;;;;5.43;0.47;;;;;;;20.75;69.05;101695.56;7385818;19;20172;-62
2022/07/22 01:56:25;;;;;;;5.95;0.22;;;;;;;20.77;69.43;101698.06;7384149;19;20015;-62
2022/07/22 01:58:52;;;;;;;2.92;0.50;;;;;;;20.75;69.43;101700.09;7382297;19;20377;-62
2022/07/22 02:01:19;;;;;;;4.82;2.05;;;;;;;20.73;69.57;101694.94;7382997;19;20082;-62
2022/07/22 02:03:46;;;;;;;2.67;0.40;;;;;;;20.73;69.53;101691.44;7380695;19;20585;-63
2022/07/22 02:06:13;;;;;;;6.15;0.35;;;;;;;20.72;69.64;101697.81;7381884;19;20141;-62
2022/07/22 02:08:40;;;;;;;3.97;0.88;;;;;;;20.71;69.32;101705.03;7381970;19;20029;-62
2022/07/22 02:11:07;;;;;;;4.05;0.47;;;;;;;20.71;69.04;101697.00;7381242;19;20842;-63
2022/07/22 02:13:34;;;;;;;8.10;0.68;;;;;;;20.72;68.92;101693.31;7383510;19;20086;-62
2022/07/22 02:16:02;;;;;;;5.72;0.75;;;;;;;20.70;68.99;101698.03;7383352;19;20368;-62
2022/07/22 02:18:29;;;;;;;4.95;0.30;;;;;;;20.70;69.17;101697.19;7381326;19;20398;-62
2022/07/22 02:20:56;;;;;;;5.38;0.65;;;;;;;20.69;69.61;101696.34;7380913;19;20025;-62
2022/07/22 02:23:23;;;;;;;3.58;0.40;;;;;;;20.69;69.54;101691.00;7382960;19;20027;-65
2022/07/22 02:25:50;;;;;;;3.42;0.45;;;;;;;20.69;69.35;101696.34;7383455;19;20687;-63
2022/07/22 02:28:17;;;;;;;2.35;0.40;;;;;;;20.70;69.05;101702.53;7382451;19;20049;-63
2022/07/22 02:30:44;;;;;;;4.10;0.50;;;;;;;20.69;69.00;101701.72;7381546;19;20015;-67
2022/07/22 02:33:11;;;;;;;8.38;0.50;;;;;;;20.68;68.83;101704.56;7383547;19;20019;-62
2022/07/22 02:35:38;;;;;;;4.53;0.30;;;;;;;20.70;68.73;101694.50;7378899;19;20570;-65
2022/07/22 02:38:05;;;;;;;2.85;0.52;;;;;;;20.71;69.47;101697.00;7382238;19;20031;-65
2022/07/22 02:40:32;;;;;;;5.75;0.50;;;;;;;20.73;69.11;101699.44;7381431;19;20014;-65
2022/07/22 02:42:59;;;;;;;8.52;0.93;;;;;;;20.70;68.82;101702.53;7382525;19;20018;-65
2022/07/22 02:45:26;;;;;;;2.63;0.38;;;;;;;20.71;68.86;101706.88;7379385;19;20352;-65
2022/07/22 02:47:55;;;;;;;5.28;0.40;;;;;;;20.70;68.77;101707.88;7382418;19;20022;-66
2022/07/22 02:50:25;;;;;;;3.35;0.95;;;;;;;20.69;68.94;101714.25;7377757;19;20031;-65
2022/07/22 02:52:52;;;;;;;2.35;0.40;;;;;;;20.69;68.69;101717.75;7382665;19;20021;-65
2022/07/22 02:55:19;;;;;;;3.83;0.60;;;;;;;20.71;69.46;101718.41;7383111;19;20015;-66
2022/07/22 02:57:46;;;;;;;3.22;0.35;;;;;;;20.73;69.09;101710.97;7388617;19;20018;-65
2022/07/22 03:00:13;;;;;;;2.50;0.40;;;;;;;20.75;68.94;101708.13;7387579;19;20018;-66
2022/07/22 03:02:40;;;;;;;4.35;0.57;;;;;;;20.74;68.72;101704.63;7389566;19;20031;-65
2022/07/22 03:05:08;;;;;;;4.75;0.40;;;;;;;20.70;69.24;101714.06;7385657;19;20039;-65
2022/07/22 03:07:35;;;;;;;2.28;0.40;;;;;;;20.70;69.45;101707.88;7385988;19;20106;-67
2022/07/22 03:10:04;;;;;;;3.92;0.40;;;;;;;20.68;69.45;101700.06;7385259;19;20421;-65
2022/07/22 03:12:31;;;;;;;4.82;0.55;;;;;;;20.66;69.64;101704.78;7388451;19;20124;-62
2022/07/22 03:14:58;;;;;;;3.97;0.40;;;;;;;20.64;69.68;101706.81;7389100;19;20017;-62
2022/07/22 03:17:25;;;;;;;8.20;0.50;;;;;;;20.64;69.79;101701.47;7388890;19;20033;-62
2022/07/22 03:19:51;;;;;;;5.78;0.68;;;;;;;20.64;70.17;101706.00;7386190;19;20022;-62
2022/07/22 03:22:18;;;;;;;7.28;0.47;;;;;;;20.62;70.20;101692.81;7387794;19;20042;-62
2022/07/22 03:24:45;;;;;;;5.47;0.40;;;;;;;20.64;69.82;101697.97;7388386;19;20082;-62
2022/07/22 03:27:12;;;;;;;6.43;0.45;;;;;;;20.60;70.41;101689.53;7387126;19;20575;-62
2022/07/22 03:29:39;;;;;;;4.13;1.50;;;;;;;20.62;70.78;101698.16;7385938;19;20010;-62
2022/07/22 03:32:06;;;;;;;3.58;0.40;;;;;;;20.63;70.68;101699.00;7387010;19;20077;-62
2022/07/22 03:34:33;;;;;;;5.07;0.40;;;;;;;20.59;69.74;101695.88;7384870;19;20038;-62
2022/07/22 03:36:59;;;;;;;3.92;0.40;;;;;;;20.61;69.92;101699.22;7387256;19;20018;-61
2022/07/22 03:39:26;;;;;;;4.97;0.50;;;;;;;20.57;69.05;101692.56;7386380;19;20014;-61
2022/07/22 03:41:53;;;;;;;3.90;0.40;;;;;;;20.59;68.58;101689.72;7386690;19;20082;-65
2022/07/22 03:44:20;;;;;;;2.28;0.32;;;;;;;20.56;68.58;101688.28;7386536;19;20359;-65
2022/07/22 03:46:47;;;;;;;6.05;0.40;;;;;;;20.55;68.50;101696.47;7387204;19;20024;-66
2022/07/22 03:49:14;;;;;;;5.63;0.40;;;;;;;20.51;68.67;101681.84;7384594;19;20449;-65
2022/07/22 03:51:41;;;;;;;5.55;0.30;;;;;;;20.49;68.28;101682.03;7387246;19;20503;-64
2022/07/22 03:54:08;;;;;;;1.67;0.30;;;;;;;20.53;67.91;101679.78;7385973;19;20006;-65
2022/07/22 03:56:35;;;;;;;3.17;0.50;;;;;;;20.51;68.29;101680.00;7385997;19;20078;-65
2022/07/22 03:59:02;;;;;;;3.75;0.95;;;;;;;20.52;68.09;101670.16;7388431;19;20012;-65
2022/07/22 04:01:29;;;;;;;3.30;0.88;;;;;;;20.49;68.30;101663.31;7387015;19;20015;-65
2022/07/22 04:03:57;;;;;;;4.82;0.30;;;;;;;20.48;68.10;101665.16;7383851;19;20011;-65
2022/07/22 04:06:30;;;;;;;3.38;0.40;;;;;;;20.51;68.55;101665.81;7385796;19;20007;-65
2022/07/22 04:08:57;;;;;;;8.38;0.57;;;;;;;20.51;68.11;101669.31;7384364;19;20635;-65
2022/07/22 04:11:26;;;;;;;1.95;0.30;;;;;;;20.48;68.49;101664.34;7387299;19;20086;-62
2022/07/22 04:13:53;;;;;;;5.15;0.30;;;;;;;20.44;68.59;101671.13;7387104;19;20010;-64
2022/07/22 04:16:20;;;;;;;3.85;0.40;;;;;;;20.42;68.59;101667.78;7386642;19;20021;-62
2022/07/22 04:18:47;;;;;;;3.63;0.30;;;;;;;20.43;68.61;101666.78;7384070;19;20110;-62
2022/07/22 04:21:14;;;;;;;6.72;0.93;;;;;;;20.44;68.40;101655.06;7383806;19;20018;-62
2022/07/22 04:23:41;;;;;;;2.80;0.50;;;;;;;20.42;68.88;101651.75;7386908;19;20183;-62
2022/07/22 04:26:08;;;;;;;3.33;0.30;;;;;;;20.44;68.89;101652.41;7385998;19;20034;-62
2022/07/22 04:28:35;;;;;;;6.60;0.40;;;;;;;20.42;69.21;101646.41;7384653;19;20513;-62
2022/07/22 04:31:03;;;;;;;3.60;0.40;;;;;;;20.41;69.00;101647.44;7386406;19;20023;-62
2022/07/22 04:33:30;;;;;;;7.25;0.32;;;;;;;20.41;69.12;101644.78;7384619;19;20019;-62
2022/07/22 04:35:57;;;;;;;6.25;0.47;;;;;;;20.39;69.27;101639.63;7386215;19;20560;-63
2022/07/22 04:38:24;;;;;;;5.28;0.98;;;;;;;20.38;69.13;101639.81;7386022;19;20029;-62
2022/07/22 04:40:51;;;;;;;2.78;0.40;;;;;;;20.38;69.03;101637.13;7387804;19;20082;-62
2022/07/22 04:43:21;;;;;;;2.17;0.50;;;;;;;20.40;69.42;101640.44;7385628;19;20015;-61
2022/07/22 04:45:48;;;;;;;1.85;0.30;;;;;;;20.40;68.91;101632.44;7383959;19;20471;-62
2022/07/22 04:48:15;;;;;;;5.45;0.40;;;;;;;20.39;69.19;101623.56;7385072;19;20015;-62
2022/07/22 04:50:42;;;;;;;3.97;0.38;;;;;;;20.39;69.23;101633.44;7380286;19;20021;-62
2022/07/22 04:53:10;;;;;;;4.78;0.40;;;;;;;20.37;69.05;101627.47;7382462;19;20010;-62
2022/07/22 04:55:37;;;;;;;5.03;0.57;;;;;;;20.37;69.20;101627.47;7385729;19;20022;-61
2022/07/22 04:58:05;;;;;;;6.25;0.40;;;;;;;20.35;68.81;101627.69;7385980;19;20038;-65
2022/07/22 05:00:32;;;;;;;4.50;0.50;;;;;;;20.37;69.62;101622.94;7383453;19;20014;-65
2022/07/22 05:02:59;;;;;;;5.65;0.40;;;;;;;20.37;69.21;101614.09;7384565;19;20113;-65
2022/07/22 05:05:26;;;;;;;4.03;0.40;;;;;;;20.39;68.94;101615.56;7383325;19;20106;-65
2022/07/22 05:07:53;;;;;;;2.72;0.73;;;;;;;20.40;69.03;101614.53;7386621;19;20025;-65
2022/07/22 05:10:20;;;;;;;7.13;0.90;;;;;;;20.37;69.57;101614.91;7384865;19;20010;-63
2022/07/22 05:12:47;;;;;;;2.35;0.40;;;;;;;20.36;69.33;101615.97;7385229;19;20021;-61
2022/07/22 05:15:14;;;;;;;3.33;0.40;;;;;;;20.34;69.35;101607.31;7384404;19;20036;-62
2022/07/22 05:17:47;;;;;;;6.80;0.50;;;;;;;20.30;69.80;101610.53;7383354;19;20475;-62
2022/07/22 05:20:16;;;;;;;3.22;0.30;;;;;;;20.33;69.64;101615.50;7380202;19;20365;-65
2022/07/22 05:22:43;;;;;;;2.50;0.50;;;;;;;20.34;69.69;101625.19;7384135;19;20021;-62
2022/07/22 05:25:09;;;;;;;6.13;0.40;;;;;;;20.35;69.87;101618.81;7384321;19;20090;-65
2022/07/22 05:27:50;;;;;;;4.50;0.40;;;;;;;20.35;69.60;101619.66;7383274;19;20035;-65
2022/07/22 05:30:17;;;;;;;1.45;0.40;;;;;;;20.39;69.79;101630.78;7382919;19;20091;-66
2022/07/22 05:32:50;;;;;;;3.78;0.50;;;;;;;20.37;69.38;101624.78;7384695;19;20019;-65
2022/07/22 05:35:16;;;;;;;3.53;0.75;;;;;;;20.35;69.57;101627.69;7381561;19;20444;-66
2022/07/22 05:37:45;;;;;;;5.00;0.47;;;;;;;20.36;70.01;101620.47;7385078;19;20031;-65
2022/07/22 05:40:12;;;;;;;1.88;0.30;;;;;;;20.36;69.82;101625.81;7383776;19;20022;-65
2022/07/22 05:42:39;;;;;;;1.55;0.30;;;;;;;20.35;69.71;101633.03;7386002;19;20055;-65
2022/07/22 05:45:06;;;;;;;3.10;0.68;;;;;;;20.37;69.47;101636.31;7383339;19;20024;-66
2022/07/22 05:47:33;;;;;;;3.30;0.70;;;;;;;20.39;69.53;101641.47;7384864;19;20097;-64
2022/07/22 05:50:00;;;;;;;5.07;0.40;;;;;;;20.38;69.42;101639.81;7381364;19;20086;-65
2022/07/22 05:52:27;;;;;;;4.20;0.40;;;;;;;20.36;69.33;101645.38;7381505;19;20025;-67
2022/07/22 05:54:54;;;;;;;5.47;0.40;;;;;;;20.33;69.49;101650.28;7384397;19;20147;-65
2022/07/22 05:57:21;;;;;;;4.07;0.40;;;;;;;20.32;69.37;101645.94;7383561;19;20024;-65
2022/07/22 05:59:48;;;;;;;6.45;0.40;;;;;;;20.31;69.41;101646.97;7382654;19;20023;-65
2022/07/22 06:02:15;;;;;;;5.35;0.40;;;;;;;20.29;69.62;101647.13;7383830;19;20014;-65
2022/07/22 06:04:42;;;;;;;4.80;0.40;;;;;;;20.27;69.78;101643.81;7380835;19;20610;-65
2022/07/22 06:07:09;;;;;;;2.78;0.40;;;;;;;20.27;69.75;101649.16;7385420;19;20018;-66
2022/07/22 06:09:36;;;;;;;4.40;0.40;;;;;;;20.31;69.69;101646.97;7383705;19;20110;-65
2022/07/22 06:12:03;;;;;;;5.13;0.60;;;;;;;20.32;70.01;101651.28;7385822;19;20025;-62
2022/07/22 06:14:30;;;;;;;4.22;0.40;;;;;;;20.30;69.81;101647.97;7383255;19;20367;-62
2022/07/22 06:16:57;;;;;;;4.20;0.68;;;;;;;20.28;69.42;101644.66;7383553;19;20025;-62
2022/07/22 06:19:24;;;;;;;4.57;0.50;;;;;;;20.28;69.62;101647.31;7380733;19;20031;-62
2022/07/22 06:21:51;;;;;;;7.03;0.70;;;;;;;20.31;69.51;101650.50;7384284;19;20018;-63
2022/07/22 06:24:17;;;;;;;8.73;0.60;;;;;;;20.32;70.00;101646.75;7383435;19;20489;-63
2022/07/22 06:26:51;;;;;;;5.18;0.50;;;;;;;20.34;70.02;101642.06;7382759;19;20022;-62
2022/07/22 06:29:18;;;;;;;4.93;0.60;;;;;;;20.35;69.79;101633.03;7382443;19;20010;-63
2022/07/22 06:31:44;;;;;;;3.53;0.40;;;;;;;20.36;69.57;101636.53;7382142;19;20018;-62
2022/07/22 06:34:11;;;;;;;3.45;0.40;;;;;;;20.38;70.10;101631.78;7381471;19;20022;-64
2022/07/22 06:36:38;;;;;;;4.65;0.93;;;;;;;20.40;70.21;101635.09;7384341;19;20379;-62
2022/07/22 06:39:05;;;;;;;5.38;0.60;;;;;;;20.40;69.54;101637.78;7383471;19;20035;-62
2022/07/22 06:41:32;;;;;;;6.43;0.70;;;;;;;20.40;69.22;101633.25;7384722;19;20018;-69
2022/07/22 06:43:59;;;;;;;6.32;0.77;;;;;;;20.43;69.36;101634.69;7385256;19;20483;-62
2022/07/22 06:46:26;;;;;;;5.18;0.60;;;;;;;20.48;69.17;101624.22;7385462;19;20075;-62
2022/07/22 06:48:54;;;;;;;1.83;0.40;;;;;;;20.51;69.12;101629.19;7382462;19;20014;-64
2022/07/22 06:51:23;;;;;;;4.40;0.60;;;;;;;20.55;68.49;101621.59;7383054;19;20014;-63
2022/07/22 06:53:52;;;;;;;5.32;0.80;;;;;;;20.61;68.80;101628.84;7384365;19;20023;-62
2022/07/22 06:56:20;;;;;;;4.80;0.50;;;;;;;20.64;68.72;101623.06;7384613;19;20036;-63
2022/07/22 06:58:47;;;;;;;6.95;1.02;;;;;;;20.68;68.56;101629.66;7382929;19;20497;-63
2022/07/22 07:01:13;;;;;;;3.33;0.52;;;;;;;20.69;68.43;101620.63;7381913;19;20030;-63
2022/07/22 07:03:40;;;;;;;6.60;0.80;;;;;;;20.72;69.30;101618.41;7381798;19;20010;-62
2022/07/22 07:06:11;;;;;;;3.47;0.50;;;;;;;20.70;68.67;101617.75;7384089;19;20380;-63
2022/07/22 07:08:39;;;;;;;3.63;0.50;;;;;;;20.71;68.45;101613.25;7383589;19;20042;-63
2022/07/22 07:11:07;;;;;;;4.15;0.73;;;;;;;20.73;68.26;101613.84;7382530;19;20018;-63
2022/07/22 07:13:34;;;;;;;4.22;0.50;;;;;;;20.73;68.17;101612.00;7383530;19;20553;-63
2022/07/22 07:16:01;;;;;;;4.45;1.02;;;;;;;20.74;68.28;101610.16;7382899;19;20014;-62
2022/07/22 07:18:28;;;;;;;4.78;0.80;;;;;;;20.77;69.20;101607.09;7383897;19;20011;-62
2022/07/22 07:20:55;;;;;;;3.83;0.73;;;;;;;20.81;68.46;101608.34;7382988;19;20039;-63
2022/07/22 07:23:22;;;;;;;6.22;0.50;;;;;;;20.81;68.46;101608.34;7383181;19;20014;-63
2022/07/22 07:25:49;;;;;;;3.47;0.70;;;;;;;20.84;68.18;101611.44;7381038;19;20081;-62
2022/07/22 07:28:16;;;;;;;5.70;0.93;;;;;;;20.90;68.33;101625.84;7381830;19;20137;-62
2022/07/22 07:30:46;;;;;;;16.48;0.93;;;;;;;20.92;68.09;101616.63;7380305;19;20221;-62
2022/07/22 07:33:14;;;;;;;6.32;0.68;;;;;;;20.94;68.16;101619.06;7385105;19;20020;-63
2022/07/22 07:35:41;;;;;;;5.07;0.50;;;;;;;20.98;67.73;101622.19;7340412;19;20026;-63
2022/07/22 07:38:08;;;;;;;4.28;0.47;;;;;;;20.99;67.27;101618.47;7375706;19;20011;-62
2022/07/22 07:40:35;;;;;;;6.72;0.50;;;;;;;20.96;66.13;101608.19;7383386;19;20037;-62
2022/07/22 07:43:02;;;;;;;4.82;0.40;;;;;;;20.97;64.98;101618.69;7390895;19;20018;-61
2022/07/22 07:45:31;;;;;;;3.35;0.40;;;;;;;21.00;64.53;101625.47;7389615;19;20038;-63
2022/07/22 07:47:58;;;;;;;2.17;0.35;;;;;;;21.03;64.56;101614.38;7390934;19;20371;-62
2022/07/22 07:50:25;;;;;;;4.03;0.70;;;;;;;21.05;64.84;101612.31;7385189;19;20384;-61
2022/07/22 07:52:52;;;;;;;3.88;0.80;;;;;;;21.09;64.67;101613.56;7389793;19;20007;-61
2022/07/22 07:55:20;;;;;;;3.92;0.50;;;;;;;21.10;64.60;101621.38;7387895;19;20261;-62
2022/07/22 07:57:52;;;;;;;3.08;0.30;;;;;;;21.13;63.86;101622.84;7387186;19;20018;-61
2022/07/22 08:00:23;;;;;;;1.70;0.50;;;;;;;21.16;64.67;101625.97;7389850;19;20516;-66
2022/07/22 08:02:50;;;;;;;2.38;0.43;;;;;;;21.21;63.95;101620.00;7388125;19;20018;-65
2022/07/22 08:05:19;;;;;;;4.47;0.50;;;;;;;21.19;63.81;101625.56;7384904;19;20014;-66
2022/07/22 08:07:56;;;;;;;6.22;0.57;;;;;;;21.18;64.32;101623.91;7390130;19;20018;-66
2022/07/22 08:10:24;;;;;;;3.85;0.70;;;;;;;21.13;64.25;101626.31;7388588;19;20046;-66
2022/07/22 08:13:11;;;;;;;4.85;1.05;;;;;;;21.13;64.15;101623.66;7388929;19;20581;-65
2022/07/22 08:15:38;;;;;;;4.70;0.70;;;;;;;21.11;64.97;101619.53;7386481;19;20111;-65
2022/07/22 08:18:05;;;;;;;7.50;0.40;;;;;;;21.10;63.67;101616.03;7388888;19;20070;-66
2022/07/22 08:20:32;;;;;;;3.17;0.40;;;;;;;21.09;63.92;101614.38;7384858;19;20559;-66
2022/07/22 08:22:59;;;;;;;5.15;0.40;;;;;;;21.07;63.53;101618.31;7388842;19;20476;-66
2022/07/22 08:25:26;;;;;;;5.47;0.50;;;;;;;21.06;64.25;101608.63;7388343;19;20010;-66
2022/07/22 08:27:56;;;;;;;4.38;0.43;;;;;;;21.06;64.09;101604.09;7389311;19;20018;-66
2022/07/22 08:30:26;;;;;;;7.13;0.40;;;;;;;21.11;64.60;101598.94;7386806;19;20051;-64
2022/07/22 08:32:54;;;;;;;3.53;0.30;;;;;;;21.22;63.87;101594.88;7388153;19;20018;-66
2022/07/22 08:35:21;;;;;;;3.50;0.40;;;;;;;21.29;62.93;101601.06;7384007;19;20017;-66
2022/07/22 08:37:50;;;;;;;2.88;0.43;;;;;;;21.36;62.27;101595.72;7388938;19;20024;-66
2022/07/22 08:40:18;;;;;;;3.75;0.55;;;;;;;21.41;62.73;101596.75;7386531;19;20114;-66
2022/07/22 08:42:47;;;;;;;6.68;0.40;;;;;;;21.41;61.95;101607.47;7388506;19;20475;-67
2022/07/22 08:45:14;;;;;;;3.35;0.50;;;;;;;21.42;62.27;101606.44;7388306;19;20535;-66
2022/07/22 08:47:54;;;;;;;3.50;0.43;;;;;;;21.43;61.51;101605.41;7389287;19;20010;-64
2022/07/22 08:50:22;;;;;;;1.38;0.32;;;;;;;21.40;61.15;101605.81;7380904;19;20011;-65
2022/07/22 08:52:49;;;;;;;4.93;0.90;;;;;;;21.37;61.39;101613.44;7383349;19;20011;-65
2022/07/22 08:55:16;;;;;;;5.30;0.40;;;;;;;21.36;62.03;101601.91;7385021;19;20007;-66
2022/07/22 08:57:50;;;;;;;4.63;0.55;;;;;;;21.42;61.69;101608.28;7386372;19;20074;-65
2022/07/22 09:00:21;;;;;;;7.75;0.52;;;;;;;21.46;61.37;101610.34;7356849;19;20078;-61
2022/07/22 09:02:48;;;;;;;4.20;0.60;;;;;;;21.53;61.24;101608.53;7380551;19;20032;-63
2022/07/22 09:05:16;;;;;;;2.40;0.55;;;;;;;21.54;61.30;101606.63;7382507;19;20074;-61
2022/07/22 09:08:03;;;;;;;1.48;0.40;;;;;;;21.57;61.65;101607.06;7386316;19;20014;-64
2022/07/22 09:10:33;;;;;;;4.38;0.40;;;;;;;21.60;61.46;101609.31;7385697;19;20016;-62
2022/07/22 09:13:04;;;;;;;6.28;0.40;;;;;;;21.60;61.87;101600.47;7385923;19;20042;-64
2022/07/22 09:15:35;;;;;;;5.53;0.40;;;;;;;21.53;62.38;101597.81;7385805;19;20017;-64
2022/07/22 09:18:04;;;;;;;4.57;0.68;;;;;;;21.58;62.43;101594.50;7386467;19;20767;-63
2022/07/22 09:20:33;;;;;;;5.25;1.08;;;;;;;21.69;62.21;101592.00;7380184;19;20830;-63
2022/07/22 09:23:01;;;;;;;7.55;0.60;;;;;;;21.79;61.51;101577.38;7386121;19;20021;-62
2022/07/22 09:25:34;;;;;;;2.78;0.40;;;;;;;21.84;61.00;101577.59;7385019;19;20021;-62
2022/07/22 09:28:07;;;;;;;1.90;0.47;;;;;;;21.87;60.79;101580.66;7384340;19;20022;-64
2022/07/22 09:30:38;;;;;;;3.50;0.60;;;;;;;21.86;60.74;101572.81;7384504;19;20010;-62
2022/07/22 09:33:08;;;;;;;5.95;0.38;;;;;;;21.88;60.88;101584.19;7387385;19;20339;-62
2022/07/22 09:35:36;;;;;;;3.67;0.50;;;;;;;21.90;61.21;101582.91;7381110;19;20097;-63
2022/07/22 09:38:09;;;;;;;2.72;0.40;;;;;;;21.98;61.33;101576.56;7385337;19;20373;-63
2022/07/22 09:40:41;;;;;;;3.53;0.40;;;;;;;22.06;60.68;101577.16;7385307;19;20013;-62
2022/07/22 09:43:11;;;;;;;;;;;;;;;22.08;61.21;101571.59;7380684;19;20339;-64
2022/07/22 09:45:49;;;;;;;1.95;0.40;;;;;;;22.10;60.07;101570.31;7376707;19;19923;-64
2022/07/22 09:48:18;;;;;;;6.03;0.52;;;;;;;22.10;60.29;101558.78;7386629;19;20015;-67
2022/07/22 09:50:46;;;;;;;4.57;0.38;;;;;;;22.06;60.20;101563.75;7380538;19;20475;-63
2022/07/22 09:53:14;;;;;;;4.68;0.50;;;;;;;22.02;59.86;101561.69;7384228;19;20074;-64
2022/07/22 09:55:41;;;;;;;3.85;0.80;;;;;;;21.98;59.89;101555.13;7383769;19;20085;-62
2022/07/22 09:58:08;;;;;;;3.45;0.45;;;;;;;22.01;60.12;101562.72;7384602;19;20014;-62
2022/07/22 10:00:37;;;;;;;4.00;0.55;;;;;;;22.05;60.15;101570.13;7382454;19;20073;-63
2022/07/22 10:03:07;;;;;;;4.18;0.50;;;;;;;22.05;59.70;101572.81;7382260;19;20058;-63
2022/07/22 10:05:37;;;;;;;5.60;0.73;;;;;;;22.05;60.10;101562.09;7379238;19;20046;-63
2022/07/22 10:08:06;;;;;;;4.25;0.57;;;;;;;22.08;59.92;101558.19;7374349;19;20509;-64
2022/07/22 10:10:35;;;;;;;2.28;0.63;;;;;;;22.14;60.28;101558.16;7372451;19;20086;-62
2022/07/22 10:13:04;;;;;;;7.25;0.60;;;;;;;22.20;59.97;101561.03;7381424;19;20444;-63
2022/07/22 10:15:33;;;;;;;3.25;0.60;;;;;;;22.28;60.19;101568.84;7381840;19;20477;-64
2022/07/22 10:18:15;;;;;;;8.73;0.90;;;;;;;22.36;60.59;101557.88;7383099;19;20024;-63
2022/07/22 10:20:42;;;;;;;7.63;0.52;;;;;;;22.45;59.59;101557.41;7379668;19;20014;-63
2022/07/22 10:23:11;;;;;;;6.63;0.55;;;;;;;22.57;58.93;101562.94;7384720;19;20117;-63
2022/07/22 10:25:53;;;;;;;3.28;0.50;;;;;;;22.61;58.15;101575.72;7383652;19;20102;-64
2022/07/22 10:28:31;;;;;;;3.17;0.40;;;;;;;22.64;58.12;101579.03;7386028;19;20487;-63
2022/07/22 10:31:18;;;;;;;5.20;0.50;;;;;;;22.68;56.88;101572.19;7383896;19;20491;-64
2022/07/22 10:33:49;;;;;;;2.70;0.45;;;;;;;22.68;57.45;101577.56;7380638;19;20029;-63
2022/07/22 10:36:33;;;;;;;5.07;0.40;;;;;;;22.67;58.18;101576.72;7381453;19;20011;-63
2022/07/22 10:39:12;;;;;;;7.07;1.15;;;;;;;22.66;57.55;101568.88;7380834;19;20019;-63
2022/07/22 10:41:45;;;;;;;4.45;0.50;;;;;;;22.67;57.67;101563.31;7382564;19;20018;-63
2022/07/22 10:44:47;;;;;;;4.35;0.73;;;;;;;22.65;57.59;101559.22;7384087;19;20424;-63
2022/07/22 10:47:52;;;;;;;3.72;0.40;;;;;;;22.61;57.49;101561.47;7381861;19;20010;-63
2022/07/22 10:50:37;;;;;;;4.13;0.50;;;;;;;22.55;57.66;101568.50;7376904;19;20007;-63
2022/07/22 10:53:06;;;;;;;4.13;0.50;;;;;;;22.54;57.58;101572.25;7383698;19;20022;-63
2022/07/22 10:55:34;;;;;;;4.50;0.50;;;;;;;22.51;57.89;101563.78;7382678;19;20604;-62
2022/07/22 10:58:33;;;;;;;4.93;0.40;;;;;;;22.50;58.16;101571.00;7383636;19;20483;-62
2022/07/22 11:01:06;;;;;;;6.10;0.65;;;;;;;22.47;57.63;101559.91;7381784;19;20015;-63
2022/07/22 11:03:35;;;;;;;4.07;0.57;;;;;;;22.46;57.64;101567.13;7377613;19;20058;-62
2022/07/22 11:06:16;;;;;;;2.72;0.43;;;;;;;22.42;57.42;101549.81;7380570;19;20018;-63
2022/07/22 11:08:44;;;;;;;4.07;0.70;;;;;;;22.36;56.61;101555.19;7382410;19;20018;-63
2022/07/22 11:11:11;;;;;;;5.88;0.90;;;;;;;22.36;56.47;101545.28;7382142;19;20025;-62
2022/07/22 11:13:40;;;;;;;4.38;0.70;;;;;;;22.36;56.39;101545.28;7381834;19;20494;-63
2022/07/22 11:16:18;;;;;;;6.53;0.70;;;;;;;22.32;56.41;101548.59;7383177;19;20044;-62
2022/07/22 11:18:50;;;;;;;2.90;0.50;;;;;;;22.30;56.88;101543.44;7387440;19;20022;-62
2022/07/22 11:21:22;;;;;;;4.80;0.50;;;;;;;22.31;56.61;101544.28;7387170;19;20021;-62
2022/07/22 11:23:51;;;;;;;;;;;;;;;22.35;57.41;101543.63;7386993;19;20051;-62
2022/07/22 11:26:25;;;;;;;3.63;0.70;;;;;;;22.30;56.89;101542.66;7390486;19;19939;-62
2022/07/22 11:28:52;;;;;;;4.38;0.60;;;;;;;22.33;56.71;101539.53;7388426;19;20592;-62
2022/07/22 11:31:19;;;;;;;2.35;0.50;;;;;;;22.30;56.63;101540.75;7384565;19;20022;-62
2022/07/22 11:33:46;;;;;;;3.00;0.50;;;;;;;22.34;57.28;101533.13;7385402;19;20809;-62